sensor_id;sensor_type;location;lat;lon;timestamp;pressure;altitude;pressure_sealevel;temperature;humidity
12624;BME280;6377;42.836;23.998;2022-12-18T00:01:23;96247.31;;;7.92;100.00
12624;BME280;6377;42.836;23.998;2022-12-18T00:03:52;96395.44;;;8.85;100.00
12624;BME280;6377;42.836;23.998;2022-12-18T00:06:20;96397.28;;;8.75;100.00
12624;BME280;6377;42.836;23.998;2022-12-18T00:08:48;96400.22;;;8.55;100.00
12624;BME280;6377;42.836;23.998;2022-12-18T00:11:18;96426.09;;;8.69;100.00
12624;BME280;6377;42.836;23.998;2022-12-18T00:13:46;96359.81;;;8.36;100.00
12624;BME280;6377;42.836;23.998;2022-12-18T00:16:17;96409.03;;;8.63;100.00
12624;BME280;6377;42.836;23.998;2022-12-18T00:18:46;96425.16;;;8.60;100.00
12624;BME280;6377;42.836;23.998;2022-12-18T00:21:14;96431.13;;;8.62;100.00
12624;BME280;6377;42.836;23.998;2022-12-18T00:23:43;96370.59;;;8.16;100.00
12624;BME280;6377;42.836;23.998;2022-12-18T00:26:12;96321.09;;;7.82;100.00
12624;BME280;6377;42.836;23.998;2022-12-18T00:28:40;96392.34;;;8.27;100.00
12624;BME280;6377;42.836;23.998;2022-12-18T00:31:10;96355.53;;;7.99;100.00
12624;BME280;6377;42.836;23.998;2022-12-18T00:33:39;96336.25;;;7.71;100.00
12624;BME280;6377;42.836;23.998;2022-12-18T00:36:10;96395.19;;;7.97;100.00
12624;BME280;6377;42.836;23.998;2022-12-18T00:38:38;96404.13;;;7.86;100.00
12624;BME280;6377;42.836;23.998;2022-12-18T00:41:06;96403.13;;;7.87;100.00
12624;BME280;6377;42.836;23.998;2022-12-18T00:43:34;96324.16;;;7.41;100.00
12624;BME280;6377;42.836;23.998;2022-12-18T00:46:01;96421.44;;;7.89;100.00
12624;BME280;6377;42.836;23.998;2022-12-18T00:48:28;96443.53;;;8.15;100.00
12624;BME280;6377;42.836;23.998;2022-12-18T00:50:57;96408.28;;;7.89;100.00
12624;BME280;6377;42.836;23.998;2022-12-18T00:53:25;96410.34;;;7.85;100.00
12624;BME280;6377;42.836;23.998;2022-12-18T00:55:55;96399.34;;;7.63;100.00
12624;BME280;6377;42.836;23.998;2022-12-18T00:58:23;96328.78;;;7.20;100.00
12624;BME280;6377;42.836;23.998;2022-12-18T01:00:50;96360.63;;;7.17;100.00
12624;BME280;6377;42.836;23.998;2022-12-18T01:03:18;96410.84;;;7.62;100.00
12624;BME280;6377;42.836;23.998;2022-12-18T01:05:45;96429.09;;;7.63;100.00
12624;BME280;6377;42.836;23.998;2022-12-18T01:08:15;96427.06;;;7.57;100.00
12624;BME280;6377;42.836;23.998;2022-12-18T01:10:42;96325.75;;;7.05;100.00
12624;BME280;6377;42.836;23.998;2022-12-18T01:13:10;96413.75;;;7.59;100.00
12624;BME280;6377;42.836;23.998;2022-12-18T01:15:37;96381.78;;;7.34;100.00
12624;BME280;6377;42.836;23.998;2022-12-18T01:18:05;96413.47;;;7.52;100.00
12624;BME280;6377;42.836;23.998;2022-12-18T01:20:33;96387.78;;;7.27;100.00
12624;BME280;6377;42.836;23.998;2022-12-18T01:23:01;96410.44;;;7.38;100.00
12624;BME280;6377;42.836;23.998;2022-12-18T01:25:30;96443.81;;;7.47;100.00
12624;BME280;6377;42.836;23.998;2022-12-18T01:33:43;96436.09;;;7.36;100.00
12624;BME280;6377;42.836;23.998;2022-12-18T01:39:39;96437.06;;;7.06;100.00
12624;BME280;6377;42.836;23.998;2022-12-18T01:42:11;96352.47;;;6.53;100.00
12624;BME280;6377;42.836;23.998;2022-12-18T01:48:05;96356.09;;;6.61;100.00
12624;BME280;6377;42.836;23.998;2022-12-18T01:53:55;96419.75;;;6.74;100.00
12624;BME280;6377;42.836;23.998;2022-12-18T01:56:25;96454.47;;;6.68;100.00
12624;BME280;6377;42.836;23.998;2022-12-18T01:58:58;96375.31;;;6.43;100.00
12624;BME280;6377;42.836;23.998;2022-12-18T02:01:30;96392.75;;;6.53;100.00
12624;BME280;6377;42.836;23.998;2022-12-18T02:07:26;96449.78;;;6.82;100.00
12624;BME280;6377;42.836;23.998;2022-12-18T02:10:02;96491.63;;;7.04;100.00
12624;BME280;6377;42.836;23.998;2022-12-18T02:12:38;96281.09;;;5.70;100.00
12624;BME280;6377;42.836;23.998;2022-12-18T02:15:16;96452.53;;;6.70;100.00
12624;BME280;6377;42.836;23.998;2022-12-18T02:27:09;96484.38;;;6.77;100.00
12624;BME280;6377;42.836;23.998;2022-12-18T02:32:40;96445.03;;;6.56;100.00
12624;BME280;6377;42.836;23.998;2022-12-18T02:35:19;96361.81;;;6.07;100.00
12624;BME280;6377;42.836;23.998;2022-12-18T02:37:48;96479.69;;;6.81;100.00
12624;BME280;6377;42.836;23.998;2022-12-18T02:40:17;96384.91;;;6.23;100.00
12624;BME280;6377;42.836;23.998;2022-12-18T02:42:47;96394.06;;;6.29;100.00
12624;BME280;6377;42.836;23.998;2022-12-18T02:45:16;96402.00;;;6.48;100.00
12624;BME280;6377;42.836;23.998;2022-12-18T02:47:46;96508.38;;;7.12;100.00
12624;BME280;6377;42.836;23.998;2022-12-18T02:50:19;96351.50;;;6.25;100.00
12624;BME280;6377;42.836;23.998;2022-12-18T02:52:58;96513.47;;;7.14;100.00
12624;BME280;6377;42.836;23.998;2022-12-18T02:55:39;96481.50;;;7.09;100.00
12624;BME280;6377;42.836;23.998;2022-12-18T03:01:28;96497.59;;;7.15;100.00
12624;BME280;6377;42.836;23.998;2022-12-18T03:04:14;96541.22;;;7.27;100.00
12624;BME280;6377;42.836;23.998;2022-12-18T03:06:48;96518.19;;;7.20;100.00
12624;BME280;6377;42.836;23.998;2022-12-18T03:09:21;96548.72;;;7.51;100.00
12624;BME280;6377;42.836;23.998;2022-12-18T03:11:53;96492.97;;;7.08;100.00
12624;BME280;6377;42.836;23.998;2022-12-18T03:14:40;96533.59;;;7.24;100.00
12624;BME280;6377;42.836;23.998;2022-12-18T03:17:13;96507.97;;;7.07;100.00
12624;BME280;6377;42.836;23.998;2022-12-18T03:22:53;96544.50;;;7.20;100.00
12624;BME280;6377;42.836;23.998;2022-12-18T03:25:25;96517.75;;;7.05;100.00
12624;BME280;6377;42.836;23.998;2022-12-18T03:31:12;96546.84;;;7.13;100.00
12624;BME280;6377;42.836;23.998;2022-12-18T03:33:59;96581.50;;;7.28;100.00
12624;BME280;6377;42.836;23.998;2022-12-18T03:36:29;96592.44;;;7.23;100.00
12624;BME280;6377;42.836;23.998;2022-12-18T03:38:58;96539.34;;;6.90;100.00
12624;BME280;6377;42.836;23.998;2022-12-18T03:41:30;96495.09;;;6.55;100.00
12624;BME280;6377;42.836;23.998;2022-12-18T03:44:06;96431.47;;;6.11;100.00
12624;BME280;6377;42.836;23.998;2022-12-18T03:46:41;96487.38;;;6.63;100.00
12624;BME280;6377;42.836;23.998;2022-12-18T03:49:23;96465.03;;;6.38;100.00
12624;BME280;6377;42.836;23.998;2022-12-18T03:54:59;96508.69;;;6.69;100.00
12624;BME280;6377;42.836;23.998;2022-12-18T03:57:30;96377.50;;;5.88;100.00
12624;BME280;6377;42.836;23.998;2022-12-18T04:00:02;96432.19;;;6.23;100.00
12624;BME280;6377;42.836;23.998;2022-12-18T04:02:32;96395.22;;;6.05;100.00
12624;BME280;6377;42.836;23.998;2022-12-18T04:05:05;96593.41;;;7.32;100.00
12624;BME280;6377;42.836;23.998;2022-12-18T04:07:34;96587.31;;;7.31;100.00
12624;BME280;6377;42.836;23.998;2022-12-18T04:10:04;96586.06;;;7.26;100.00
12624;BME280;6377;42.836;23.998;2022-12-18T04:12:33;96600.66;;;7.49;100.00
12624;BME280;6377;42.836;23.998;2022-12-18T04:15:02;96594.69;;;7.47;100.00
12624;BME280;6377;42.836;23.998;2022-12-18T04:17:30;96584.31;;;7.36;100.00
12624;BME280;6377;42.836;23.998;2022-12-18T04:19:57;96599.00;;;7.48;100.00
12624;BME280;6377;42.836;23.998;2022-12-18T04:22:26;96579.56;;;7.20;100.00
12624;BME280;6377;42.836;23.998;2022-12-18T04:24:54;96619.06;;;7.40;100.00
12624;BME280;6377;42.836;23.998;2022-12-18T04:27:22;96546.53;;;6.88;100.00
12624;BME280;6377;42.836;23.998;2022-12-18T04:29:49;96613.63;;;7.31;100.00
12624;BME280;6377;42.836;23.998;2022-12-18T04:32:17;96635.78;;;7.29;100.00
12624;BME280;6377;42.836;23.998;2022-12-18T04:34:44;96583.50;;;6.96;100.00
12624;BME280;6377;42.836;23.998;2022-12-18T04:37:12;96610.13;;;7.12;100.00
12624;BME280;6377;42.836;23.998;2022-12-18T04:39:41;96565.72;;;6.69;100.00
12624;BME280;6377;42.836;23.998;2022-12-18T04:42:08;96639.19;;;7.01;100.00
12624;BME280;6377;42.836;23.998;2022-12-18T04:44:36;96627.81;;;7.00;100.00
12624;BME280;6377;42.836;23.998;2022-12-18T04:47:04;96632.91;;;6.92;100.00
12624;BME280;6377;42.836;23.998;2022-12-18T04:49:32;96649.38;;;6.94;100.00
12624;BME280;6377;42.836;23.998;2022-12-18T04:51:59;96608.69;;;6.58;100.00
12624;BME280;6377;42.836;23.998;2022-12-18T04:54:27;96634.13;;;6.88;100.00
12624;BME280;6377;42.836;23.998;2022-12-18T04:56:56;96632.72;;;6.84;100.00
12624;BME280;6377;42.836;23.998;2022-12-18T04:59:23;96659.38;;;7.00;100.00
12624;BME280;6377;42.836;23.998;2022-12-18T05:01:51;96653.28;;;7.00;100.00
12624;BME280;6377;42.836;23.998;2022-12-18T05:04:18;96617.63;;;6.76;100.00
12624;BME280;6377;42.836;23.998;2022-12-18T05:06:46;96630.84;;;6.96;100.00
12624;BME280;6377;42.836;23.998;2022-12-18T05:09:14;96711.63;;;7.45;100.00
12624;BME280;6377;42.836;23.998;2022-12-18T05:11:41;96671.91;;;7.17;100.00
12624;BME280;6377;42.836;23.998;2022-12-18T05:14:10;96655.28;;;7.07;100.00
12624;BME280;6377;42.836;23.998;2022-12-18T05:16:38;96621.50;;;6.82;100.00
12624;BME280;6377;42.836;23.998;2022-12-18T05:19:05;96594.91;;;6.66;100.00
12624;BME280;6377;42.836;23.998;2022-12-18T05:21:33;96723.78;;;7.36;100.00
12624;BME280;6377;42.836;23.998;2022-12-18T05:24:00;96642.97;;;6.78;100.00
12624;BME280;6377;42.836;23.998;2022-12-18T05:26:27;96685.00;;;7.08;100.00
12624;BME280;6377;42.836;23.998;2022-12-18T05:28:55;96620.59;;;6.62;100.00
12624;BME280;6377;42.836;23.998;2022-12-18T05:31:25;96715.16;;;7.24;100.00
12624;BME280;6377;42.836;23.998;2022-12-18T05:33:52;96689.00;;;7.02;100.00
12624;BME280;6377;42.836;23.998;2022-12-18T05:36:20;96713.47;;;7.23;100.00
12624;BME280;6377;42.836;23.998;2022-12-18T05:38:47;96705.38;;;7.06;100.00
12624;BME280;6377;42.836;23.998;2022-12-18T05:41:15;96693.84;;;6.97;100.00
12624;BME280;6377;42.836;23.998;2022-12-18T05:43:43;96620.75;;;6.40;100.00
12624;BME280;6377;42.836;23.998;2022-12-18T05:46:13;96683.25;;;6.57;100.00
12624;BME280;6377;42.836;23.998;2022-12-18T05:48:44;96754.69;;;7.13;100.00
12624;BME280;6377;42.836;23.998;2022-12-18T05:51:14;96728.47;;;6.82;100.00
12624;BME280;6377;42.836;23.998;2022-12-18T05:53:43;96669.41;;;6.35;100.00
12624;BME280;6377;42.836;23.998;2022-12-18T05:56:12;96733.50;;;6.64;100.00
12624;BME280;6377;42.836;23.998;2022-12-18T05:58:40;96734.78;;;6.69;100.00
12624;BME280;6377;42.836;23.998;2022-12-18T06:01:09;96686.31;;;6.21;100.00
12624;BME280;6377;42.836;23.998;2022-12-18T06:03:37;96662.09;;;6.17;100.00
12624;BME280;6377;42.836;23.998;2022-12-18T06:06:14;96750.44;;;6.50;100.00
12624;BME280;6377;42.836;23.998;2022-12-18T06:08:42;96786.53;;;6.69;100.00
12624;BME280;6377;42.836;23.998;2022-12-18T06:11:09;96779.41;;;6.60;100.00
12624;BME280;6377;42.836;23.998;2022-12-18T06:13:37;96759.72;;;6.54;100.00
12624;BME280;6377;42.836;23.998;2022-12-18T06:16:05;96790.13;;;6.68;100.00
12624;BME280;6377;42.836;23.998;2022-12-18T06:18:32;96789.03;;;6.70;100.00
12624;BME280;6377;42.836;23.998;2022-12-18T06:21:00;96780.25;;;6.60;100.00
12624;BME280;6377;42.836;23.998;2022-12-18T06:23:29;96780.81;;;6.64;100.00
12624;BME280;6377;42.836;23.998;2022-12-18T06:25:57;96780.94;;;6.62;100.00
12624;BME280;6377;42.836;23.998;2022-12-18T06:28:25;96833.41;;;6.85;100.00
12624;BME280;6377;42.836;23.998;2022-12-18T06:30:52;96835.84;;;6.76;100.00
12624;BME280;6377;42.836;23.998;2022-12-18T06:33:20;96772.69;;;6.35;100.00
12624;BME280;6377;42.836;23.998;2022-12-18T06:35:47;96807.41;;;6.50;100.00
12624;BME280;6377;42.836;23.998;2022-12-18T06:38:15;96726.84;;;6.07;100.00
12624;BME280;6377;42.836;23.998;2022-12-18T06:40:44;96782.13;;;6.38;100.00
12624;BME280;6377;42.836;23.998;2022-12-18T06:43:12;96642.03;;;5.53;100.00
12624;BME280;6377;42.836;23.998;2022-12-18T06:45:40;96756.81;;;6.05;100.00
12624;BME280;6377;42.836;23.998;2022-12-18T06:48:07;96834.38;;;6.52;100.00
12624;BME280;6377;42.836;23.998;2022-12-18T06:50:35;96780.03;;;6.20;100.00
12624;BME280;6377;42.836;23.998;2022-12-18T06:53:02;96828.44;;;6.50;100.00
12624;BME280;6377;42.836;23.998;2022-12-18T06:55:30;96791.00;;;6.37;100.00
12624;BME280;6377;42.836;23.998;2022-12-18T06:57:59;96798.72;;;6.38;100.00
12624;BME280;6377;42.836;23.998;2022-12-18T07:00:27;96858.72;;;6.65;100.00
12624;BME280;6377;42.836;23.998;2022-12-18T07:02:54;96840.53;;;6.73;100.00
12624;BME280;6377;42.836;23.998;2022-12-18T07:05:22;96833.03;;;6.68;100.00
12624;BME280;6377;42.836;23.998;2022-12-18T07:07:49;96854.97;;;6.78;100.00
12624;BME280;6377;42.836;23.998;2022-12-18T07:10:17;96838.22;;;6.80;100.00
12624;BME280;6377;42.836;23.998;2022-12-18T07:12:44;96882.66;;;7.14;100.00
12624;BME280;6377;42.836;23.998;2022-12-18T07:15:13;96810.72;;;6.84;100.00
12624;BME280;6377;42.836;23.998;2022-12-18T07:17:41;96880.97;;;7.34;100.00
12624;BME280;6377;42.836;23.998;2022-12-18T07:20:10;96803.13;;;6.90;100.00
12624;BME280;6377;42.836;23.998;2022-12-18T07:22:38;96778.50;;;6.70;100.00
12624;BME280;6377;42.836;23.998;2022-12-18T07:25:07;96883.59;;;7.55;100.00
12624;BME280;6377;42.836;23.998;2022-12-18T07:27:35;96783.78;;;6.91;100.00
12624;BME280;6377;42.836;23.998;2022-12-18T07:30:03;96675.47;;;6.35;100.00
12624;BME280;6377;42.836;23.998;2022-12-18T07:32:33;96909.59;;;7.69;100.00
12624;BME280;6377;42.836;23.998;2022-12-18T07:35:00;96902.25;;;7.72;100.00
12624;BME280;6377;42.836;23.998;2022-12-18T07:37:32;96825.97;;;7.31;100.00
12624;BME280;6377;42.836;23.998;2022-12-18T07:39:59;96847.72;;;7.33;100.00
12624;BME280;6377;42.836;23.998;2022-12-18T07:42:27;96854.06;;;7.51;100.00
12624;BME280;6377;42.836;23.998;2022-12-18T07:44:57;96825.69;;;7.34;100.00
12624;BME280;6377;42.836;23.998;2022-12-18T07:47:25;96810.63;;;7.36;100.00
12624;BME280;6377;42.836;23.998;2022-12-18T07:49:54;96895.47;;;8.00;100.00
12624;BME280;6377;42.836;23.998;2022-12-18T07:52:22;96742.19;;;7.06;100.00
12624;BME280;6377;42.836;23.998;2022-12-18T07:54:49;96799.47;;;7.53;100.00
12624;BME280;6377;42.836;23.998;2022-12-18T07:57:17;96897.47;;;8.17;100.00
12624;BME280;6377;42.836;23.998;2022-12-18T07:59:45;96711.47;;;7.06;100.00
12624;BME280;6377;42.836;23.998;2022-12-18T08:02:12;96833.50;;;7.75;100.00
12624;BME280;6377;42.836;23.998;2022-12-18T08:04:40;96839.34;;;7.79;100.00
12624;BME280;6377;42.836;23.998;2022-12-18T08:07:09;96873.75;;;7.87;100.00
12624;BME280;6377;42.836;23.998;2022-12-18T08:09:37;96847.31;;;7.58;100.00
12624;BME280;6377;42.836;23.998;2022-12-18T08:12:05;96836.81;;;7.38;100.00
12624;BME280;6377;42.836;23.998;2022-12-18T08:14:33;96868.88;;;7.52;100.00
12624;BME280;6377;42.836;23.998;2022-12-18T08:17:01;96884.84;;;7.60;100.00
12624;BME280;6377;42.836;23.998;2022-12-18T08:19:28;96781.91;;;6.82;100.00
12624;BME280;6377;42.836;23.998;2022-12-18T08:21:56;96812.19;;;6.97;100.00
12624;BME280;6377;42.836;23.998;2022-12-18T08:24:25;96913.13;;;7.58;100.00
12624;BME280;6377;42.836;23.998;2022-12-18T08:26:53;96888.34;;;7.40;100.00
12624;BME280;6377;42.836;23.998;2022-12-18T08:29:20;96894.44;;;7.41;100.00
12624;BME280;6377;42.836;23.998;2022-12-18T08:31:48;96854.22;;;7.08;100.00
12624;BME280;6377;42.836;23.998;2022-12-18T08:34:16;96868.41;;;7.17;100.00
12624;BME280;6377;42.836;23.998;2022-12-18T08:36:44;96848.56;;;6.92;100.00
12624;BME280;6377;42.836;23.998;2022-12-18T08:39:11;96930.84;;;7.36;100.00
12624;BME280;6377;42.836;23.998;2022-12-18T08:41:41;96917.44;;;7.18;100.00
12624;BME280;6377;42.836;23.998;2022-12-18T08:44:29;96893.31;;;7.13;100.00
12624;BME280;6377;42.836;23.998;2022-12-18T08:47:04;96920.00;;;7.29;100.00
12624;BME280;6377;42.836;23.998;2022-12-18T08:49:32;96910.97;;;7.43;100.00
12624;BME280;6377;42.836;23.998;2022-12-18T08:52:00;96952.25;;;7.63;100.00
12624;BME280;6377;42.836;23.998;2022-12-18T08:54:29;96912.44;;;7.56;100.00
12624;BME280;6377;42.836;23.998;2022-12-18T08:56:58;96843.25;;;7.24;100.00
12624;BME280;6377;42.836;23.998;2022-12-18T08:59:25;96750.28;;;6.72;100.00
12624;BME280;6377;42.836;23.998;2022-12-18T09:01:54;96819.44;;;7.05;100.00
12624;BME280;6377;42.836;23.998;2022-12-18T09:04:21;96853.78;;;7.24;100.00
12624;BME280;6377;42.836;23.998;2022-12-18T09:06:49;96974.06;;;7.95;100.00
12624;BME280;6377;42.836;23.998;2022-12-18T09:09:17;96920.66;;;7.63;100.00
12624;BME280;6377;42.836;23.998;2022-12-18T09:11:44;96941.63;;;7.74;100.00
12624;BME280;6377;42.836;23.998;2022-12-18T09:14:13;96919.50;;;7.56;100.00
12624;BME280;6377;42.836;23.998;2022-12-18T09:16:41;96904.66;;;7.55;100.00
12624;BME280;6377;42.836;23.998;2022-12-18T09:19:09;96915.91;;;7.57;100.00
12624;BME280;6377;42.836;23.998;2022-12-18T09:21:37;96870.59;;;7.32;100.00
12624;BME280;6377;42.836;23.998;2022-12-18T09:24:05;96813.53;;;7.12;100.00
12624;BME280;6377;42.836;23.998;2022-12-18T09:26:33;96892.81;;;7.70;100.00
12624;BME280;6377;42.836;23.998;2022-12-18T09:29:02;96920.84;;;8.01;100.00
12624;BME280;6377;42.836;23.998;2022-12-18T09:31:32;96927.19;;;7.99;100.00
12624;BME280;6377;42.836;23.998;2022-12-18T09:33:59;96853.41;;;7.59;100.00
12624;BME280;6377;42.836;23.998;2022-12-18T09:36:27;96888.94;;;7.95;100.00
12624;BME280;6377;42.836;23.998;2022-12-18T09:38:54;96935.50;;;8.24;100.00
12624;BME280;6377;42.836;23.998;2022-12-18T09:41:39;96979.44;;;8.44;100.00
12624;BME280;6377;42.836;23.998;2022-12-18T09:44:15;96911.53;;;7.97;100.00
12624;BME280;6377;42.836;23.998;2022-12-18T09:46:49;96957.53;;;8.23;100.00
12624;BME280;6377;42.836;23.998;2022-12-18T09:49:20;96951.38;;;8.13;100.00
12624;BME280;6377;42.836;23.998;2022-12-18T09:51:52;96927.16;;;7.89;100.00
12624;BME280;6377;42.836;23.998;2022-12-18T09:54:24;96962.47;;;8.07;100.00
12624;BME280;6377;42.836;23.998;2022-12-18T09:56:52;96921.75;;;7.90;100.00
12624;BME280;6377;42.836;23.998;2022-12-18T09:59:25;96991.09;;;8.42;100.00
12624;BME280;6377;42.836;23.998;2022-12-18T10:01:55;96960.59;;;8.19;100.00
12624;BME280;6377;42.836;23.998;2022-12-18T10:04:23;96932.50;;;8.08;100.00
12624;BME280;6377;42.836;23.998;2022-12-18T10:06:54;96992.75;;;8.43;100.00
12624;BME280;6377;42.836;23.998;2022-12-18T10:09:33;96951.53;;;8.12;100.00
12624;BME280;6377;42.836;23.998;2022-12-18T10:12:08;96944.38;;;8.23;100.00
12624;BME280;6377;42.836;23.998;2022-12-18T10:14:49;96960.25;;;8.33;100.00
12624;BME280;6377;42.836;23.998;2022-12-18T10:17:26;96987.78;;;8.50;100.00
12624;BME280;6377;42.836;23.998;2022-12-18T10:19:57;96936.72;;;8.20;100.00
12624;BME280;6377;42.836;23.998;2022-12-18T10:22:35;96858.81;;;7.57;100.00
12624;BME280;6377;42.836;23.998;2022-12-18T10:25:21;96985.00;;;8.41;100.00
12624;BME280;6377;42.836;23.998;2022-12-18T10:27:53;96943.78;;;8.20;100.00
12624;BME280;6377;42.836;23.998;2022-12-18T10:30:23;96994.47;;;8.63;100.00
12624;BME280;6377;42.836;23.998;2022-12-18T10:32:53;96952.66;;;8.49;100.00
12624;BME280;6377;42.836;23.998;2022-12-18T10:35:25;96986.06;;;8.79;96.30
12624;BME280;6377;42.836;23.998;2022-12-18T10:38:04;96968.03;;;8.74;91.90
12624;BME280;6377;42.836;23.998;2022-12-18T10:40:32;96903.72;;;8.26;90.26
12624;BME280;6377;42.836;23.998;2022-12-18T10:43:11;97000.38;;;8.76;93.52
12624;BME280;6377;42.836;23.998;2022-12-18T10:45:39;96975.34;;;8.61;89.10
12624;BME280;6377;42.836;23.998;2022-12-18T10:48:19;96992.94;;;8.51;87.03
12624;BME280;6377;42.836;23.998;2022-12-18T10:50:50;96941.03;;;8.21;88.70
12624;BME280;6377;42.836;23.998;2022-12-18T10:53:20;96997.00;;;8.65;91.03
12624;BME280;6377;42.836;23.998;2022-12-18T10:55:49;96992.19;;;8.79;85.54
12624;BME280;6377;42.836;23.998;2022-12-18T10:58:23;96996.34;;;8.82;78.96
12624;BME280;6377;42.836;23.998;2022-12-18T11:01:09;96994.13;;;8.87;81.77
12624;BME280;6377;42.836;23.998;2022-12-18T11:03:40;96990.38;;;8.89;82.25
12624;BME280;6377;42.836;23.998;2022-12-18T11:06:10;96990.53;;;8.88;82.79
12624;BME280;6377;42.836;23.998;2022-12-18T11:08:38;96991.03;;;8.63;76.19
12624;BME280;6377;42.836;23.998;2022-12-18T11:11:15;96991.84;;;8.54;80.11
12624;BME280;6377;42.836;23.998;2022-12-18T11:13:57;96991.53;;;8.47;80.58
12624;BME280;6377;42.836;23.998;2022-12-18T11:16:26;96944.50;;;8.22;82.94
12624;BME280;6377;42.836;23.998;2022-12-18T11:19:17;96986.81;;;8.51;80.55
12624;BME280;6377;42.836;23.998;2022-12-18T11:21:47;96986.94;;;8.49;82.64
12624;BME280;6377;42.836;23.998;2022-12-18T11:24:21;96991.47;;;8.68;78.16
12624;BME280;6377;42.836;23.998;2022-12-18T11:26:52;96940.44;;;8.38;82.76
12624;BME280;6377;42.836;23.998;2022-12-18T11:29:24;96956.28;;;8.58;82.31
12624;BME280;6377;42.836;23.998;2022-12-18T11:32:30;96948.28;;;8.59;85.29
12624;BME280;6377;42.836;23.998;2022-12-18T11:35:10;96968.00;;;8.65;81.09
12624;BME280;6377;42.836;23.998;2022-12-18T11:37:42;97000.66;;;8.83;81.84
12624;BME280;6377;42.836;23.998;2022-12-18T11:40:14;97009.66;;;8.71;78.74
12624;BME280;6377;42.836;23.998;2022-12-18T11:42:48;96962.22;;;8.40;83.10
12624;BME280;6377;42.836;23.998;2022-12-18T11:45:24;97004.53;;;8.79;84.44
12624;BME280;6377;42.836;23.998;2022-12-18T11:47:57;97000.94;;;8.80;82.20
12624;BME280;6377;42.836;23.998;2022-12-18T11:50:32;97010.66;;;8.79;81.47
12624;BME280;6377;42.836;23.998;2022-12-18T11:53:01;96869.84;;;7.81;77.17
12624;BME280;6377;42.836;23.998;2022-12-18T11:55:36;97013.47;;;8.57;77.80
12624;BME280;6377;42.836;23.998;2022-12-18T11:58:11;96953.00;;;8.05;82.33
12624;BME280;6377;42.836;23.998;2022-12-18T12:00:47;97004.34;;;8.61;81.04
12624;BME280;6377;42.836;23.998;2022-12-18T12:03:29;97005.44;;;8.59;79.90
12624;BME280;6377;42.836;23.998;2022-12-18T12:06:10;97006.34;;;8.38;78.74
12624;BME280;6377;42.836;23.998;2022-12-18T12:08:56;97011.03;;;8.35;79.95
12624;BME280;6377;42.836;23.998;2022-12-18T12:11:43;97009.25;;;8.35;80.22
12624;BME280;6377;42.836;23.998;2022-12-18T12:14:30;96988.84;;;7.86;77.58
12624;BME280;6377;42.836;23.998;2022-12-18T12:17:06;96997.00;;;8.04;78.85
12624;BME280;6377;42.836;23.998;2022-12-18T12:19:45;97004.69;;;7.96;78.01
12624;BME280;6377;42.836;23.998;2022-12-18T12:22:24;96879.84;;;7.27;80.76
12624;BME280;6377;42.836;23.998;2022-12-18T12:25:06;97002.28;;;8.14;79.73
12624;BME280;6377;42.836;23.998;2022-12-18T12:27:42;96921.88;;;7.59;77.04
12624;BME280;6377;42.836;23.998;2022-12-18T12:30:19;97009.31;;;8.24;72.92
12624;BME280;6377;42.836;23.998;2022-12-18T12:33:02;96852.75;;;6.95;69.61
12624;BME280;6377;42.836;23.998;2022-12-18T12:35:42;97005.34;;;8.09;72.52
12624;BME280;6377;42.836;23.998;2022-12-18T12:38:19;96882.13;;;7.20;73.29
12624;BME280;6377;42.836;23.998;2022-12-18T12:40:51;97009.31;;;8.24;71.00
12624;BME280;6377;42.836;23.998;2022-12-18T12:43:27;96985.22;;;8.08;73.78
12624;BME280;6377;42.836;23.998;2022-12-18T12:45:58;96964.81;;;8.10;70.14
12624;BME280;6377;42.836;23.998;2022-12-18T12:48:40;97014.00;;;8.41;67.59
12624;BME280;6377;42.836;23.998;2022-12-18T12:51:14;97044.09;;;8.39;67.89
12624;BME280;6377;42.836;23.998;2022-12-18T12:53:44;96990.72;;;8.26;71.15
12624;BME280;6377;42.836;23.998;2022-12-18T12:56:15;96995.38;;;8.43;69.68
12624;BME280;6377;42.836;23.998;2022-12-18T12:58:52;96992.78;;;8.53;68.07
12624;BME280;6377;42.836;23.998;2022-12-18T13:01:28;97020.59;;;8.66;68.06
12624;BME280;6377;42.836;23.998;2022-12-18T13:04:06;96942.47;;;8.05;70.50
12624;BME280;6377;42.836;23.998;2022-12-18T13:06:42;97009.88;;;8.58;70.46
12624;BME280;6377;42.836;23.998;2022-12-18T13:09:12;96931.97;;;8.14;68.03
12624;BME280;6377;42.836;23.998;2022-12-18T13:11:41;97022.69;;;8.72;67.53
12624;BME280;6377;42.836;23.998;2022-12-18T13:14:31;97029.53;;;8.84;68.40
12624;BME280;6377;42.836;23.998;2022-12-18T13:17:27;97034.50;;;8.78;68.98
12624;BME280;6377;42.836;23.998;2022-12-18T13:20:14;97015.19;;;8.68;70.79
12624;BME280;6377;42.836;23.998;2022-12-18T13:22:44;97041.47;;;8.79;67.96
12624;BME280;6377;42.836;23.998;2022-12-18T13:25:32;97038.13;;;8.77;68.43
12624;BME280;6377;42.836;23.998;2022-12-18T13:28:03;97045.06;;;8.68;68.87
12624;BME280;6377;42.836;23.998;2022-12-18T13:30:51;97028.22;;;8.60;69.18
12624;BME280;6377;42.836;23.998;2022-12-18T13:33:49;97037.63;;;8.53;67.22
12624;BME280;6377;42.836;23.998;2022-12-18T13:36:28;97042.22;;;8.51;68.15
12624;BME280;6377;42.836;23.998;2022-12-18T13:39:32;97048.88;;;8.55;71.38
12624;BME280;6377;42.836;23.998;2022-12-18T13:45:41;97045.28;;;8.56;66.62
12624;BME280;6377;42.836;23.998;2022-12-18T13:48:21;97039.25;;;8.44;67.39
12624;BME280;6377;42.836;23.998;2022-12-18T13:50:53;97038.41;;;8.43;69.93
12624;BME280;6377;42.836;23.998;2022-12-18T13:53:23;97049.31;;;8.60;69.63
12624;BME280;6377;42.836;23.998;2022-12-18T13:55:50;96935.59;;;7.83;67.93
12624;BME280;6377;42.836;23.998;2022-12-18T13:58:18;97056.41;;;8.59;66.15
12624;BME280;6377;42.836;23.998;2022-12-18T14:00:47;96900.47;;;7.52;68.15
12624;BME280;6377;42.836;23.998;2022-12-18T14:03:18;97054.44;;;8.61;68.04
12624;BME280;6377;42.836;23.998;2022-12-18T14:05:52;97076.06;;;8.55;65.46
12624;BME280;6377;42.836;23.998;2022-12-18T14:08:21;97066.63;;;8.53;66.61
12624;BME280;6377;42.836;23.998;2022-12-18T14:10:49;97062.88;;;8.55;69.46
12624;BME280;6377;42.836;23.998;2022-12-18T14:13:23;97068.03;;;8.57;70.77